sensor_id;sensor_type;location;lat;lon;timestamp;P1;durP1;ratioP1;P2;durP2;ratioP2
62990;SDS011;49084;48.204;16.202;2024-02-21T00:02:08;7.75;;;2.30;;
62990;SDS011;49084;48.204;16.202;2024-02-21T00:04:34;4.90;;;2.08;;
62990;SDS011;49084;48.204;16.202;2024-02-21T00:07:01;7.57;;;2.30;;
62990;SDS011;49084;48.204;16.202;2024-02-21T00:09:27;9.77;;;2.22;;
62990;SDS011;49084;48.204;16.202;2024-02-21T00:11:52;11.70;;;2.10;;
62990;SDS011;49084;48.204;16.202;2024-02-21T00:14:18;6.32;;;2.03;;
62990;SDS011;49084;48.204;16.202;2024-02-21T00:16:44;7.78;;;2.58;;
62990;SDS011;49084;48.204;16.202;2024-02-21T00:19:09;6.25;;;1.70;;
62990;SDS011;49084;48.204;16.202;2024-02-21T00:21:35;9.88;;;2.30;;
62990;SDS011;49084;48.204;16.202;2024-02-21T00:24:00;7.63;;;1.85;;
62990;SDS011;49084;48.204;16.202;2024-02-21T00:26:26;4.68;;;1.83;;
62990;SDS011;49084;48.204;16.202;2024-02-21T00:28:52;7.18;;;2.97;;
62990;SDS011;49084;48.204;16.202;2024-02-21T00:31:18;8.52;;;1.75;;
62990;SDS011;49084;48.204;16.202;2024-02-21T00:33:44;6.82;;;2.00;;
62990;SDS011;49084;48.204;16.202;2024-02-21T00:36:09;6.45;;;2.00;;
62990;SDS011;49084;48.204;16.202;2024-02-21T00:38:35;6.63;;;1.63;;
62990;SDS011;49084;48.204;16.202;2024-02-21T00:41:00;10.70;;;2.50;;
62990;SDS011;49084;48.204;16.202;2024-02-21T00:43:26;5.10;;;1.52;;
62990;SDS011;49084;48.204;16.202;2024-02-21T00:45:52;5.15;;;1.75;;
62990;SDS011;49084;48.204;16.202;2024-02-21T00:48:17;5.25;;;2.10;;
62990;SDS011;49084;48.204;16.202;2024-02-21T00:50:43;12.40;;;1.92;;
62990;SDS011;49084;48.204;16.202;2024-02-21T00:53:09;5.35;;;2.08;;
62990;SDS011;49084;48.204;16.202;2024-02-21T00:55:35;5.63;;;2.22;;
62990;SDS011;49084;48.204;16.202;2024-02-21T00:58:00;12.02;;;2.05;;
62990;SDS011;49084;48.204;16.202;2024-02-21T01:00:26;8.73;;;2.35;;
62990;SDS011;49084;48.204;16.202;2024-02-21T01:02:52;13.60;;;2.50;;
62990;SDS011;49084;48.204;16.202;2024-02-21T01:05:17;7.60;;;2.03;;
62990;SDS011;49084;48.204;16.202;2024-02-21T01:07:44;10.88;;;1.88;;
62990;SDS011;49084;48.204;16.202;2024-02-21T01:10:09;14.45;;;2.75;;
62990;SDS011;49084;48.204;16.202;2024-02-21T01:12:35;8.90;;;1.98;;
62990;SDS011;49084;48.204;16.202;2024-02-21T01:15:01;7.45;;;2.55;;
62990;SDS011;49084;48.204;16.202;2024-02-21T01:17:27;5.75;;;2.28;;
62990;SDS011;49084;48.204;16.202;2024-02-21T01:19:53;11.73;;;2.55;;
62990;SDS011;49084;48.204;16.202;2024-02-21T01:22:18;5.63;;;1.80;;
62990;SDS011;49084;48.204;16.202;2024-02-21T01:24:44;8.00;;;3.35;;
62990;SDS011;49084;48.204;16.202;2024-02-21T01:27:10;5.18;;;2.20;;
62990;SDS011;49084;48.204;16.202;2024-02-21T01:29:35;12.77;;;2.10;;
62990;SDS011;49084;48.204;16.202;2024-02-21T01:32:01;8.40;;;1.92;;
62990;SDS011;49084;48.204;16.202;2024-02-21T01:34:27;10.82;;;2.30;;
62990;SDS011;49084;48.204;16.202;2024-02-21T01:36:52;9.55;;;2.50;;
62990;SDS011;49084;48.204;16.202;2024-02-21T01:39:18;9.48;;;2.35;;
62990;SDS011;49084;48.204;16.202;2024-02-21T01:41:43;7.75;;;2.10;;
62990;SDS011;49084;48.204;16.202;2024-02-21T01:44:09;10.43;;;1.90;;
62990;SDS011;49084;48.204;16.202;2024-02-21T01:46:35;9.73;;;2.15;;
62990;SDS011;49084;48.204;16.202;2024-02-21T01:49:01;12.93;;;2.50;;
62990;SDS011;49084;48.204;16.202;2024-02-21T01:51:27;8.68;;;2.10;;
62990;SDS011;49084;48.204;16.202;2024-02-21T01:53:53;11.73;;;1.98;;
62990;SDS011;49084;48.204;16.202;2024-02-21T01:56:20;13.25;;;2.35;;
62990;SDS011;49084;48.204;16.202;2024-02-21T01:58:47;12.57;;;2.97;;
62990;SDS011;49084;48.204;16.202;2024-02-21T02:01:13;8.45;;;2.53;;
62990;SDS011;49084;48.204;16.202;2024-02-21T02:03:39;11.90;;;2.35;;
62990;SDS011;49084;48.204;16.202;2024-02-21T02:06:05;11.18;;;2.38;;
62990;SDS011;49084;48.204;16.202;2024-02-21T02:08:34;9.07;;;2.38;;
62990;SDS011;49084;48.204;16.202;2024-02-21T02:11:00;7.47;;;2.00;;
62990;SDS011;49084;48.204;16.202;2024-02-21T02:13:26;7.43;;;2.47;;
62990;SDS011;49084;48.204;16.202;2024-02-21T02:15:52;6.60;;;2.42;;
62990;SDS011;49084;48.204;16.202;2024-02-21T02:18:18;8.88;;;1.90;;
62990;SDS011;49084;48.204;16.202;2024-02-21T02:20:44;7.35;;;2.17;;
62990;SDS011;49084;48.204;16.202;2024-02-21T02:25:37;8.52;;;2.05;;
62990;SDS011;49084;48.204;16.202;2024-02-21T02:28:04;7.38;;;1.65;;
62990;SDS011;49084;48.204;16.202;2024-02-21T02:30:33;11.77;;;2.55;;
62990;SDS011;49084;48.204;16.202;2024-02-21T02:33:05;6.68;;;1.60;;
62990;SDS011;49084;48.204;16.202;2024-02-21T02:35:31;6.35;;;1.67;;
62990;SDS011;49084;48.204;16.202;2024-02-21T02:37:57;12.45;;;2.42;;
62990;SDS011;49084;48.204;16.202;2024-02-21T02:40:23;9.45;;;1.80;;
62990;SDS011;49084;48.204;16.202;2024-02-21T02:42:49;6.50;;;2.35;;
62990;SDS011;49084;48.204;16.202;2024-02-21T02:45:16;10.30;;;2.95;;
62990;SDS011;49084;48.204;16.202;2024-02-21T02:47:44;6.68;;;1.92;;
62990;SDS011;49084;48.204;16.202;2024-02-21T02:50:11;15.02;;;2.60;;
62990;SDS011;49084;48.204;16.202;2024-02-21T02:52:37;10.00;;;2.28;;
62990;SDS011;49084;48.204;16.202;2024-02-21T02:55:03;9.75;;;2.13;;
62990;SDS011;49084;48.204;16.202;2024-02-21T02:57:30;7.82;;;2.03;;
62990;SDS011;49084;48.204;16.202;2024-02-21T02:59:55;8.40;;;1.98;;
62990;SDS011;49084;48.204;16.202;2024-02-21T03:02:21;12.68;;;2.63;;
62990;SDS011;49084;48.204;16.202;2024-02-21T03:04:47;7.05;;;2.30;;
62990;SDS011;49084;48.204;16.202;2024-02-21T03:07:13;7.97;;;2.20;;
62990;SDS011;49084;48.204;16.202;2024-02-21T03:09:39;10.40;;;2.28;;
62990;SDS011;49084;48.204;16.202;2024-02-21T03:12:05;10.60;;;2.10;;
62990;SDS011;49084;48.204;16.202;2024-02-21T03:14:32;10.20;;;2.10;;
62990;SDS011;49084;48.204;16.202;2024-02-21T03:16:58;7.93;;;2.28;;
62990;SDS011;49084;48.204;16.202;2024-02-21T03:19:24;7.32;;;2.13;;
62990;SDS011;49084;48.204;16.202;2024-02-21T03:21:50;7.85;;;2.17;;
62990;SDS011;49084;48.204;16.202;2024-02-21T03:24:16;5.72;;;1.85;;
62990;SDS011;49084;48.204;16.202;2024-02-21T03:26:42;11.23;;;2.17;;
62990;SDS011;49084;48.204;16.202;2024-02-21T03:29:08;7.38;;;2.03;;
62990;SDS011;49084;48.204;16.202;2024-02-21T03:31:34;10.20;;;2.47;;
62990;SDS011;49084;48.204;16.202;2024-02-21T03:34:00;7.43;;;2.35;;
62990;SDS011;49084;48.204;16.202;2024-02-21T03:36:25;7.45;;;2.15;;
62990;SDS011;49084;48.204;16.202;2024-02-21T03:38:51;5.90;;;1.80;;
62990;SDS011;49084;48.204;16.202;2024-02-21T03:41:17;5.63;;;2.13;;
62990;SDS011;49084;48.204;16.202;2024-02-21T03:43:42;14.38;;;3.17;;
62990;SDS011;49084;48.204;16.202;2024-02-21T03:46:08;7.00;;;2.00;;
62990;SDS011;49084;48.204;16.202;2024-02-21T03:48:34;11.23;;;2.85;;
62990;SDS011;49084;48.204;16.202;2024-02-21T03:51:00;8.20;;;2.00;;
62990;SDS011;49084;48.204;16.202;2024-02-21T03:53:26;11.07;;;2.10;;
62990;SDS011;49084;48.204;16.202;2024-02-21T03:55:52;12.55;;;3.03;;
62990;SDS011;49084;48.204;16.202;2024-02-21T03:58:17;10.77;;;2.45;;
62990;SDS011;49084;48.204;16.202;2024-02-21T04:00:43;19.90;;;2.42;;
62990;SDS011;49084;48.204;16.202;2024-02-21T04:03:08;7.68;;;2.00;;
62990;SDS011;49084;48.204;16.202;2024-02-21T04:05:34;8.27;;;2.08;;
62990;SDS011;49084;48.204;16.202;2024-02-21T04:07:59;8.15;;;2.72;;
62990;SDS011;49084;48.204;16.202;2024-02-21T04:10:28;9.63;;;2.40;;
62990;SDS011;49084;48.204;16.202;2024-02-21T04:12:53;8.18;;;2.75;;
62990;SDS011;49084;48.204;16.202;2024-02-21T04:15:19;7.82;;;1.85;;
62990;SDS011;49084;48.204;16.202;2024-02-21T04:17:44;8.23;;;2.38;;
62990;SDS011;49084;48.204;16.202;2024-02-21T04:20:13;7.47;;;2.08;;
62990;SDS011;49084;48.204;16.202;2024-02-21T04:22:40;9.77;;;2.50;;
62990;SDS011;49084;48.204;16.202;2024-02-21T04:25:07;7.32;;;2.08;;
62990;SDS011;49084;48.204;16.202;2024-02-21T04:27:33;7.22;;;1.60;;
62990;SDS011;49084;48.204;16.202;2024-02-21T04:29:59;7.43;;;2.30;;
62990;SDS011;49084;48.204;16.202;2024-02-21T04:32:24;9.55;;;2.47;;
62990;SDS011;49084;48.204;16.202;2024-02-21T04:34:52;6.88;;;1.80;;
62990;SDS011;49084;48.204;16.202;2024-02-21T04:37:18;7.60;;;1.80;;
62990;SDS011;49084;48.204;16.202;2024-02-21T04:39:44;8.60;;;1.92;;
62990;SDS011;49084;48.204;16.202;2024-02-21T04:42:09;6.55;;;1.95;;
62990;SDS011;49084;48.204;16.202;2024-02-21T04:44:35;8.98;;;1.73;;
62990;SDS011;49084;48.204;16.202;2024-02-21T04:47:01;7.78;;;1.80;;
62990;SDS011;49084;48.204;16.202;2024-02-21T04:49:28;7.20;;;1.50;;
62990;SDS011;49084;48.204;16.202;2024-02-21T04:51:54;4.97;;;1.52;;
62990;SDS011;49084;48.204;16.202;2024-02-21T04:54:20;5.60;;;1.70;;
62990;SDS011;49084;48.204;16.202;2024-02-21T04:56:45;6.03;;;1.95;;
62990;SDS011;49084;48.204;16.202;2024-02-21T04:59:11;14.90;;;1.77;;
62990;SDS011;49084;48.204;16.202;2024-02-21T05:01:36;9.93;;;1.73;;
62990;SDS011;49084;48.204;16.202;2024-02-21T05:04:02;8.50;;;1.70;;
62990;SDS011;49084;48.204;16.202;2024-02-21T05:06:28;4.88;;;1.67;;
62990;SDS011;49084;48.204;16.202;2024-02-21T05:08:53;6.20;;;1.60;;
62990;SDS011;49084;48.204;16.202;2024-02-21T05:11:20;5.82;;;1.98;;
62990;SDS011;49084;48.204;16.202;2024-02-21T05:13:46;4.97;;;1.70;;
62990;SDS011;49084;48.204;16.202;2024-02-21T05:16:12;6.32;;;1.65;;
62990;SDS011;49084;48.204;16.202;2024-02-21T05:18:38;6.10;;;1.63;;
62990;SDS011;49084;48.204;16.202;2024-02-21T05:21:05;9.27;;;1.92;;
62990;SDS011;49084;48.204;16.202;2024-02-21T05:23:30;5.70;;;1.80;;
62990;SDS011;49084;48.204;16.202;2024-02-21T05:25:56;7.93;;;1.95;;
62990;SDS011;49084;48.204;16.202;2024-02-21T05:28:22;8.15;;;1.67;;
62990;SDS011;49084;48.204;16.202;2024-02-21T05:30:47;7.97;;;1.42;;
62990;SDS011;49084;48.204;16.202;2024-02-21T05:33:13;8.75;;;2.03;;
62990;SDS011;49084;48.204;16.202;2024-02-21T05:35:46;5.20;;;1.50;;
62990;SDS011;49084;48.204;16.202;2024-02-21T05:38:14;9.55;;;3.05;;
62990;SDS011;49084;48.204;16.202;2024-02-21T05:40:40;12.55;;;2.70;;
62990;SDS011;49084;48.204;16.202;2024-02-21T05:43:09;6.10;;;1.40;;
62990;SDS011;49084;48.204;16.202;2024-02-21T05:45:35;8.48;;;1.52;;
62990;SDS011;49084;48.204;16.202;2024-02-21T05:48:01;6.53;;;1.80;;
62990;SDS011;49084;48.204;16.202;2024-02-21T05:50:28;5.32;;;1.27;;
62990;SDS011;49084;48.204;16.202;2024-02-21T05:52:54;9.20;;;1.38;;
62990;SDS011;49084;48.204;16.202;2024-02-21T05:55:20;7.53;;;1.67;;
62990;SDS011;49084;48.204;16.202;2024-02-21T05:57:46;6.72;;;1.40;;
62990;SDS011;49084;48.204;16.202;2024-02-21T06:00:12;6.70;;;1.75;;
62990;SDS011;49084;48.204;16.202;2024-02-21T06:02:38;6.65;;;1.52;;
62990;SDS011;49084;48.204;16.202;2024-02-21T06:05:05;3.40;;;1.88;;
62990;SDS011;49084;48.204;16.202;2024-02-21T06:07:32;4.05;;;1.48;;
62990;SDS011;49084;48.204;16.202;2024-02-21T06:09:58;7.95;;;1.45;;
62990;SDS011;49084;48.204;16.202;2024-02-21T06:12:25;6.22;;;1.70;;
62990;SDS011;49084;48.204;16.202;2024-02-21T15:42:05;6.18;;;0.80;;
62990;SDS011;49084;48.204;16.202;2024-02-21T15:44:31;15.38;;;1.40;;
62990;SDS011;49084;48.204;16.202;2024-02-21T15:46:56;7.95;;;0.80;;
62990;SDS011;49084;48.204;16.202;2024-02-21T15:49:22;3.88;;;0.90;;
62990;SDS011;49084;48.204;16.202;2024-02-21T15:51:48;2.60;;;0.90;;
62990;SDS011;49084;48.204;16.202;2024-02-21T15:54:14;3.00;;;0.88;;
62990;SDS011;49084;48.204;16.202;2024-02-21T15:56:42;4.45;;;0.88;;
62990;SDS011;49084;48.204;16.202;2024-02-21T15:59:09;3.38;;;1.08;;
62990;SDS011;49084;48.204;16.202;2024-02-21T16:01:36;7.65;;;1.73;;
62990;SDS011;49084;48.204;16.202;2024-02-21T16:04:01;4.75;;;0.90;;
62990;SDS011;49084;48.204;16.202;2024-02-21T16:06:27;4.47;;;1.48;;
62990;SDS011;49084;48.204;16.202;2024-02-21T16:08:53;5.88;;;1.50;;
62990;SDS011;49084;48.204;16.202;2024-02-21T16:11:19;5.43;;;0.90;;
62990;SDS011;49084;48.204;16.202;2024-02-21T16:13:45;4.50;;;0.80;;
62990;SDS011;49084;48.204;16.202;2024-02-21T16:16:11;13.65;;;2.25;;
62990;SDS011;49084;48.204;16.202;2024-02-21T16:18:37;5.68;;;1.52;;
62990;SDS011;49084;48.204;16.202;2024-02-21T16:21:02;8.10;;;1.63;;
62990;SDS011;49084;48.204;16.202;2024-02-21T16:23:31;5.78;;;1.77;;
62990;SDS011;49084;48.204;16.202;2024-02-21T16:25:57;6.47;;;1.60;;
62990;SDS011;49084;48.204;16.202;2024-02-21T16:28:23;4.25;;;1.23;;
62990;SDS011;49084;48.204;16.202;2024-02-21T16:30:50;5.13;;;1.55;;
62990;SDS011;49084;48.204;16.202;2024-02-21T16:33:16;8.43;;;1.58;;
62990;SDS011;49084;48.204;16.202;2024-02-21T16:35:41;4.18;;;1.42;;
62990;SDS011;49084;48.204;16.202;2024-02-21T16:38:07;6.53;;;1.20;;
62990;SDS011;49084;48.204;16.202;2024-02-21T16:40:35;6.40;;;1.08;;
62990;SDS011;49084;48.204;16.202;2024-02-21T16:43:01;15.63;;;1.65;;
62990;SDS011;49084;48.204;16.202;2024-02-21T16:45:28;4.88;;;0.98;;
62990;SDS011;49084;48.204;16.202;2024-02-21T16:47:53;5.88;;;1.30;;
62990;SDS011;49084;48.204;16.202;2024-02-21T16:50:19;9.85;;;2.80;;
62990;SDS011;49084;48.204;16.202;2024-02-21T16:52:44;5.18;;;2.83;;
62990;SDS011;49084;48.204;16.202;2024-02-21T16:55:10;10.13;;;2.58;;
62990;SDS011;49084;48.204;16.202;2024-02-21T16:57:38;9.10;;;2.00;;
62990;SDS011;49084;48.204;16.202;2024-02-21T17:00:04;4.90;;;1.13;;
62990;SDS011;49084;48.204;16.202;2024-02-21T17:02:36;9.82;;;1.50;;
62990;SDS011;49084;48.204;16.202;2024-02-21T17:05:03;4.03;;;1.00;;
62990;SDS011;49084;48.204;16.202;2024-02-21T17:07:30;7.32;;;1.50;;
62990;SDS011;49084;48.204;16.202;2024-02-21T17:09:56;4.22;;;1.33;;
62990;SDS011;49084;48.204;16.202;2024-02-21T17:12:23;4.20;;;0.80;;
62990;SDS011;49084;48.204;16.202;2024-02-21T17:14:49;6.55;;;1.10;;
62990;SDS011;49084;48.204;16.202;2024-02-21T17:17:15;6.43;;;1.65;;
62990;SDS011;49084;48.204;16.202;2024-02-21T17:19:41;7.05;;;1.60;;
62990;SDS011;49084;48.204;16.202;2024-02-21T17:22:07;9.38;;;1.13;;
62990;SDS011;49084;48.204;16.202;2024-02-21T17:24:33;6.28;;;1.58;;
62990;SDS011;49084;48.204;16.202;2024-02-21T17:26:59;4.72;;;1.33;;
62990;SDS011;49084;48.204;16.202;2024-02-21T17:29:24;4.70;;;1.20;;
62990;SDS011;49084;48.204;16.202;2024-02-21T17:31:51;11.27;;;1.35;;
62990;SDS011;49084;48.204;16.202;2024-02-21T17:34:17;6.63;;;1.50;;
62990;SDS011;49084;48.204;16.202;2024-02-21T17:36:43;10.20;;;1.95;;
62990;SDS011;49084;48.204;16.202;2024-02-21T17:39:08;6.13;;;1.45;;
62990;SDS011;49084;48.204;16.202;2024-02-21T17:41:36;4.68;;;1.27;;
62990;SDS011;49084;48.204;16.202;2024-02-21T17:44:01;5.68;;;1.15;;
62990;SDS011;49084;48.204;16.202;2024-02-21T17:46:28;12.15;;;2.95;;
62990;SDS011;49084;48.204;16.202;2024-02-21T17:48:53;6.93;;;2.83;;
62990;SDS011;49084;48.204;16.202;2024-02-21T17:51:20;7.32;;;1.65;;
62990;SDS011;49084;48.204;16.202;2024-02-21T17:53:46;5.22;;;1.70;;
62990;SDS011;49084;48.204;16.202;2024-02-21T17:56:11;5.03;;;1.63;;
62990;SDS011;49084;48.204;16.202;2024-02-21T17:58:37;5.60;;;1.25;;
62990;SDS011;49084;48.204;16.202;2024-02-21T18:01:03;5.18;;;1.48;;
62990;SDS011;49084;48.204;16.202;2024-02-21T18:03:29;5.10;;;1.35;;
62990;SDS011;49084;48.204;16.202;2024-02-21T18:05:58;5.85;;;2.00;;
62990;SDS011;49084;48.204;16.202;2024-02-21T18:08:25;6.53;;;2.03;;
62990;SDS011;49084;48.204;16.202;2024-02-21T18:10:51;4.55;;;2.08;;
62990;SDS011;49084;48.204;16.202;2024-02-21T18:13:17;7.97;;;2.25;;
62990;SDS011;49084;48.204;16.202;2024-02-21T18:15:42;6.30;;;2.78;;
62990;SDS011;49084;48.204;16.202;2024-02-21T18:18:09;11.95;;;2.88;;
62990;SDS011;49084;48.204;16.202;2024-02-21T18:20:35;8.48;;;2.42;;
62990;SDS011;49084;48.204;16.202;2024-02-21T18:23:01;9.07;;;2.55;;
62990;SDS011;49084;48.204;16.202;2024-02-21T18:25:27;8.98;;;2.80;;
62990;SDS011;49084;48.204;16.202;2024-02-21T18:27:54;12.50;;;2.63;;
62990;SDS011;49084;48.204;16.202;2024-02-21T18:30:20;10.73;;;3.22;;
62990;SDS011;49084;48.204;16.202;2024-02-21T18:32:47;11.43;;;3.03;;
62990;SDS011;49084;48.204;16.202;2024-02-21T18:35:15;9.32;;;3.70;;
62990;SDS011;49084;48.204;16.202;2024-02-21T18:37:41;12.90;;;4.30;;
62990;SDS011;49084;48.204;16.202;2024-02-21T18:40:09;11.15;;;4.75;;
62990;SDS011;49084;48.204;16.202;2024-02-21T18:42:40;14.93;;;5.20;;
62990;SDS011;49084;48.204;16.202;2024-02-21T18:48:18;14.70;;;4.57;;
62990;SDS011;49084;48.204;16.202;2024-02-21T18:50:44;13.20;;;4.88;;
62990;SDS011;49084;48.204;16.202;2024-02-21T18:53:10;13.57;;;5.97;;
62990;SDS011;49084;48.204;16.202;2024-02-21T18:55:35;11.30;;;4.53;;
62990;SDS011;49084;48.204;16.202;2024-02-21T18:58:01;10.63;;;5.20;;
62990;SDS011;49084;48.204;16.202;2024-02-21T19:00:27;12.65;;;5.28;;
62990;SDS011;49084;48.204;16.202;2024-02-21T19:02:52;8.80;;;4.53;;
62990;SDS011;49084;48.204;16.202;2024-02-21T19:05:18;14.63;;;4.82;;
62990;SDS011;49084;48.204;16.202;2024-02-21T19:07:48;15.90;;;5.15;;
62990;SDS011;49084;48.204;16.202;2024-02-21T19:10:14;12.15;;;5.43;;
62990;SDS011;49084;48.204;16.202;2024-02-21T19:12:40;16.80;;;6.05;;
62990;SDS011;49084;48.204;16.202;2024-02-21T19:15:06;15.15;;;5.93;;
62990;SDS011;49084;48.204;16.202;2024-02-21T19:17:33;15.60;;;6.40;;
62990;SDS011;49084;48.204;16.202;2024-02-21T19:19:58;15.93;;;6.07;;
62990;SDS011;49084;48.204;16.202;2024-02-21T19:22:25;18.65;;;7.38;;
62990;SDS011;49084;48.204;16.202;2024-02-21T19:24:55;16.33;;;5.93;;
62990;SDS011;49084;48.204;16.202;2024-02-21T19:27:21;16.00;;;6.75;;
62990;SDS011;49084;48.204;16.202;2024-02-21T19:29:47;13.98;;;6.07;;
62990;SDS011;49084;48.204;16.202;2024-02-21T19:32:12;19.67;;;8.07;;
62990;SDS011;49084;48.204;16.202;2024-02-21T19:34:39;19.42;;;7.43;;
62990;SDS011;49084;48.204;16.202;2024-02-21T19:37:05;23.48;;;8.73;;
62990;SDS011;49084;48.204;16.202;2024-02-21T19:39:32;25.70;;;8.38;;
62990;SDS011;49084;48.204;16.202;2024-02-21T19:41:57;23.42;;;10.23;;
62990;SDS011;49084;48.204;16.202;2024-02-21T19:44:23;21.75;;;9.68;;
62990;SDS011;49084;48.204;16.202;2024-02-21T19:46:49;27.23;;;9.77;;
62990;SDS011;49084;48.204;16.202;2024-02-21T19:49:15;23.58;;;10.23;;
62990;SDS011;49084;48.204;16.202;2024-02-21T19:51:41;26.08;;;9.93;;
62990;SDS011;49084;48.204;16.202;2024-02-21T19:54:07;26.10;;;10.32;;
62990;SDS011;49084;48.204;16.202;2024-02-21T19:56:32;26.80;;;11.43;;
62990;SDS011;49084;48.204;16.202;2024-02-21T19:58:58;23.85;;;9.65;;
62990;SDS011;49084;48.204;16.202;2024-02-21T20:01:26;24.98;;;10.13;;
62990;SDS011;49084;48.204;16.202;2024-02-21T20:03:52;19.23;;;8.13;;
62990;SDS011;49084;48.204;16.202;2024-02-21T20:06:18;22.80;;;9.27;;
62990;SDS011;49084;48.204;16.202;2024-02-21T20:08:44;31.25;;;10.38;;
62990;SDS011;49084;48.204;16.202;2024-02-21T20:11:12;21.77;;;10.00;;
62990;SDS011;49084;48.204;16.202;2024-02-21T20:13:39;19.30;;;8.93;;
62990;SDS011;49084;48.204;16.202;2024-02-21T20:16:07;24.80;;;9.57;;
62990;SDS011;49084;48.204;16.202;2024-02-21T20:18:33;22.77;;;9.98;;
62990;SDS011;49084;48.204;16.202;2024-02-21T20:20:59;27.15;;;9.85;;
62990;SDS011;49084;48.204;16.202;2024-02-21T20:23:25;31.80;;;9.55;;
62990;SDS011;49084;48.204;16.202;2024-02-21T20:25:51;24.45;;;10.18;;
62990;SDS011;49084;48.204;16.202;2024-02-21T20:28:17;28.50;;;11.45;;
62990;SDS011;49084;48.204;16.202;2024-02-21T20:30:43;23.90;;;9.75;;
62990;SDS011;49084;48.204;16.202;2024-02-21T20:33:10;29.40;;;10.43;;
62990;SDS011;49084;48.204;16.202;2024-02-21T20:35:35;24.10;;;10.63;;
62990;SDS011;49084;48.204;16.202;2024-02-21T20:38:02;30.52;;;12.88;;
62990;SDS011;49084;48.204;16.202;2024-02-21T20:40:28;31.45;;;12.68;;
62990;SDS011;49084;48.204;16.202;2024-02-21T20:42:54;44.17;;;16.70;;
62990;SDS011;49084;48.204;16.202;2024-02-21T20:45:19;35.60;;;15.07;;
62990;SDS011;49084;48.204;16.202;2024-02-21T20:47:45;26.65;;;10.88;;
62990;SDS011;49084;48.204;16.202;2024-02-21T20:50:11;27.15;;;10.80;;
62990;SDS011;49084;48.204;16.202;2024-02-21T20:52:36;26.65;;;10.90;;
62990;SDS011;49084;48.204;16.202;2024-02-21T20:55:02;24.73;;;10.45;;
62990;SDS011;49084;48.204;16.202;2024-02-21T20:57:30;22.63;;;9.75;;
62990;SDS011;49084;48.204;16.202;2024-02-21T20:59:56;21.17;;;11.00;;
62990;SDS011;49084;48.204;16.202;2024-02-21T21:02:22;23.00;;;11.30;;
62990;SDS011;49084;48.204;16.202;2024-02-21T21:04:48;18.83;;;10.40;;
62990;SDS011;49084;48.204;16.202;2024-02-21T21:07:14;22.40;;;10.10;;
62990;SDS011;49084;48.204;16.202;2024-02-21T21:09:40;24.90;;;9.80;;
62990;SDS011;49084;48.204;16.202;2024-02-21T21:12:07;22.30;;;10.32;;
62990;SDS011;49084;48.204;16.202;2024-02-21T21:14:35;24.00;;;9.88;;
62990;SDS011;49084;48.204;16.202;2024-02-21T21:17:01;28.30;;;10.75;;
62990;SDS011;49084;48.204;16.202;2024-02-21T21:19:28;21.92;;;8.68;;
62990;SDS011;49084;48.204;16.202;2024-02-21T21:21:54;20.60;;;8.75;;
62990;SDS011;49084;48.204;16.202;2024-02-21T21:24:25;19.80;;;8.60;;
62990;SDS011;49084;48.204;16.202;2024-02-21T21:26:51;20.08;;;8.48;;
62990;SDS011;49084;48.204;16.202;2024-02-21T21:29:17;17.55;;;8.65;;
62990;SDS011;49084;48.204;16.202;2024-02-21T21:31:43;21.58;;;7.35;;
62990;SDS011;49084;48.204;16.202;2024-02-21T21:34:10;23.63;;;9.25;;
62990;SDS011;49084;48.204;16.202;2024-02-21T21:36:37;18.45;;;7.68;;
62990;SDS011;49084;48.204;16.202;2024-02-21T21:39:02;22.63;;;8.00;;
62990;SDS011;49084;48.204;16.202;2024-02-21T21:41:30;22.77;;;8.68;;
62990;SDS011;49084;48.204;16.202;2024-02-21T21:43:56;20.73;;;8.52;;
62990;SDS011;49084;48.204;16.202;2024-02-21T21:46:21;17.90;;;7.72;;
62990;SDS011;49084;48.204;16.202;2024-02-21T21:48:47;21.75;;;7.72;;
62990;SDS011;49084;48.204;16.202;2024-02-21T21:51:13;18.02;;;7.93;;
62990;SDS011;49084;48.204;16.202;2024-02-21T21:53:39;18.95;;;8.05;;
62990;SDS011;49084;48.204;16.202;2024-02-21T21:56:05;18.90;;;8.52;;
62990;SDS011;49084;48.204;16.202;2024-02-21T21:58:32;23.85;;;9.05;;
62990;SDS011;49084;48.204;16.202;2024-02-21T22:00:57;17.90;;;7.63;;
62990;SDS011;49084;48.204;16.202;2024-02-21T22:03:23;18.65;;;7.93;;
62990;SDS011;49084;48.204;16.202;2024-02-21T22:05:49;18.80;;;7.07;;
62990;SDS011;49084;48.204;16.202;2024-02-21T22:08:15;18.35;;;7.13;;
62990;SDS011;49084;48.204;16.202;2024-02-21T22:10:40;15.68;;;7.40;;
62990;SDS011;49084;48.204;16.202;2024-02-21T22:13:06;16.40;;;7.45;;
62990;SDS011;49084;48.204;16.202;2024-02-21T22:15:32;15.32;;;7.30;;
62990;SDS011;49084;48.204;16.202;2024-02-21T22:17:57;18.75;;;7.35;;
62990;SDS011;49084;48.204;16.202;2024-02-21T22:20:25;15.45;;;7.32;;
62990;SDS011;49084;48.204;16.202;2024-02-21T22:22:51;16.80;;;7.32;;
62990;SDS011;49084;48.204;16.202;2024-02-21T22:25:16;16.02;;;7.28;;
62990;SDS011;49084;48.204;16.202;2024-02-21T22:27:42;14.23;;;7.43;;
62990;SDS011;49084;48.204;16.202;2024-02-21T22:30:08;14.52;;;7.40;;
62990;SDS011;49084;48.204;16.202;2024-02-21T22:32:36;20.65;;;7.75;;
62990;SDS011;49084;48.204;16.202;2024-02-21T22:35:03;14.73;;;7.20;;
62990;SDS011;49084;48.204;16.202;2024-02-21T22:37:29;21.58;;;7.38;;
62990;SDS011;49084;48.204;16.202;2024-02-21T22:39:55;15.68;;;7.65;;
62990;SDS011;49084;48.204;16.202;2024-02-21T22:42:22;16.65;;;7.70;;
62990;SDS011;49084;48.204;16.202;2024-02-21T22:44:48;14.20;;;6.93;;
62990;SDS011;49084;48.204;16.202;2024-02-21T22:47:13;14.95;;;7.13;;
62990;SDS011;49084;48.204;16.202;2024-02-21T22:49:39;13.05;;;6.45;;
62990;SDS011;49084;48.204;16.202;2024-02-21T22:52:05;15.85;;;6.80;;
62990;SDS011;49084;48.204;16.202;2024-02-21T22:54:32;16.55;;;6.75;;
62990;SDS011;49084;48.204;16.202;2024-02-21T22:56:57;20.35;;;7.15;;
62990;SDS011;49084;48.204;16.202;2024-02-21T22:59:23;16.67;;;7.72;;
62990;SDS011;49084;48.204;16.202;2024-02-21T23:01:49;15.60;;;7.40;;
62990;SDS011;49084;48.204;16.202;2024-02-21T23:04:15;18.17;;;7.28;;
62990;SDS011;49084;48.204;16.202;2024-02-21T23:06:41;16.23;;;6.85;;
62990;SDS011;49084;48.204;16.202;2024-02-21T23:09:07;17.33;;;6.63;;
62990;SDS011;49084;48.204;16.202;2024-02-21T23:11:33;11.82;;;5.90;;
62990;SDS011;49084;48.204;16.202;2024-02-21T23:14:02;14.88;;;6.38;;
62990;SDS011;49084;48.204;16.202;2024-02-21T23:16:28;13.40;;;6.75;;
62990;SDS011;49084;48.204;16.202;2024-02-21T23:18:54;15.27;;;6.53;;
62990;SDS011;49084;48.204;16.202;2024-02-21T23:21:21;17.70;;;6.38;;
62990;SDS011;49084;48.204;16.202;2024-02-21T23:23:46;14.80;;;6.32;;
62990;SDS011;49084;48.204;16.202;2024-02-21T23:26:13;11.30;;;5.93;;
62990;SDS011;49084;48.204;16.202;2024-02-21T23:28:42;18.90;;;7.05;;
62990;SDS011;49084;48.204;16.202;2024-02-21T23:31:09;15.15;;;6.75;;
62990;SDS011;49084;48.204;16.202;2024-02-21T23:33:36;20.00;;;7.47;;
62990;SDS011;49084;48.204;16.202;2024-02-21T23:36:03;21.23;;;7.57;;
62990;SDS011;49084;48.204;16.202;2024-02-21T23:38:35;15.82;;;6.93;;
62990;SDS011;49084;48.204;16.202;2024-02-21T23:41:00;17.30;;;6.00;;
62990;SDS011;49084;48.204;16.202;2024-02-21T23:43:26;20.90;;;6.78;;
62990;SDS011;49084;48.204;16.202;2024-02-21T23:46:00;16.05;;;5.72;;
62990;SDS011;49084;48.204;16.202;2024-02-21T23:48:26;14.98;;;7.18;;
62990;SDS011;49084;48.204;16.202;2024-02-21T23:50:51;13.98;;;7.00;;
62990;SDS011;49084;48.204;16.202;2024-02-21T23:53:17;14.35;;;7.25;;